createdAt,value
2022-10-02T00:01:32.729Z,98303.56
2022-10-02T00:04:01.586Z,98304.56
2022-10-02T00:06:41.849Z,98307.84
2022-10-02T00:09:14.801Z,98311.25
2022-10-02T00:11:48.415Z,98313.94
2022-10-02T00:14:21.610Z,98308.81
2022-10-02T00:16:53.736Z,98306.75
2022-10-02T00:19:20.459Z,98318.47
2022-10-02T00:21:57.647Z,98319.19
2022-10-02T00:24:29.350Z,98317.34
2022-10-02T00:27:15.749Z,98321.75
2022-10-02T00:30:03.230Z,98314.94
2022-10-02T00:33:11.223Z,98325.25
2022-10-02T00:36:04.142Z,98325.03
2022-10-02T00:39:01.938Z,98336.69
2022-10-02T00:41:49.750Z,98339.25
2022-10-02T00:44:57.762Z,98339.91
2022-10-02T00:48:04.166Z,98338.28
2022-10-02T00:50:46.563Z,98335.63
2022-10-02T00:53:40.931Z,98333.00
2022-10-02T00:56:20.081Z,98343.91
2022-10-02T00:59:03.288Z,98340.63
2022-10-02T01:01:41.553Z,98344.09
2022-10-02T01:04:15.746Z,98349.41
2022-10-02T01:06:42.498Z,98343.44
2022-10-02T01:09:09.168Z,98336.97
2022-10-02T01:11:36.882Z,98342.38
2022-10-02T01:14:04.775Z,98348.47
2022-10-02T01:16:32.758Z,98342.53
2022-10-02T01:18:59.449Z,98351.28
2022-10-02T01:21:38.114Z,98346.06
2022-10-02T01:24:20.208Z,98356.59
2022-10-02T01:26:46.787Z,98364.59
2022-10-02T01:29:14.126Z,98370.00
2022-10-02T01:31:43.257Z,98362.00
2022-10-02T01:34:10.211Z,98360.19
2022-10-02T01:36:37.254Z,98360.06
2022-10-02T01:39:04.830Z,98357.31
2022-10-02T01:41:35.282Z,98366.00
2022-10-02T01:44:02.759Z,98362.50
2022-10-02T01:46:49.193Z,98358.06
2022-10-02T01:49:36.561Z,98361.84
2022-10-02T01:52:37.329Z,98358.91
2022-10-02T01:55:33.377Z,98356.13
2022-10-02T01:58:25.850Z,98359.06
2022-10-02T02:01:10.688Z,98363.56
2022-10-02T02:03:46.472Z,98354.16
2022-10-02T02:06:25.569Z,98362.97
2022-10-02T02:09:07.660Z,98358.47
2022-10-02T02:11:39.606Z,98361.09
2022-10-02T02:14:17.366Z,98359.41
2022-10-02T02:16:47.889Z,98355.78
2022-10-02T02:19:24.991Z,98360.69
2022-10-02T02:21:58.924Z,98354.88
2022-10-02T02:25:02.584Z,98372.41
2022-10-02T02:27:34.885Z,98369.03
2022-10-02T02:30:06.812Z,98364.47
2022-10-02T02:35:34.186Z,98370.56
2022-10-02T02:38:05.651Z,98367.66
2022-10-02T02:40:37.266Z,98366.66
2022-10-02T02:43:09.069Z,98381.63
2022-10-02T02:45:40.718Z,98383.28
2022-10-02T02:48:53.952Z,98386.59
2022-10-02T02:51:36.475Z,98379.41
2022-10-02T02:54:08.980Z,98381.22
2022-10-02T02:56:37.659Z,98378.59
2022-10-02T02:59:11.050Z,98388.03
2022-10-02T03:01:37.794Z,98376.63
2022-10-02T03:04:04.563Z,98376.53
2022-10-02T03:06:37.166Z,98377.38
2022-10-02T03:09:13.753Z,98379.81
2022-10-02T03:11:52.554Z,98378.75
2022-10-02T03:14:46.931Z,98380.56
2022-10-02T03:17:32.833Z,98378.69
2022-10-02T03:20:17.646Z,98384.59
2022-10-02T03:22:50.130Z,98388.94
2022-10-02T03:25:26.358Z,98390.75
2022-10-02T03:27:56.496Z,98378.31
2022-10-02T03:30:24.546Z,98386.09
2022-10-02T03:32:53.844Z,98383.16
2022-10-02T03:35:22.730Z,98384.75
2022-10-02T03:37:53.046Z,98391.03
2022-10-02T03:40:24.655Z,98384.66
2022-10-02T03:42:52.089Z,98377.72
2022-10-02T03:45:39.332Z,98379.53
2022-10-02T03:48:06.349Z,98379.28
2022-10-02T03:50:36.190Z,98385.34
2022-10-02T03:53:12.121Z,98388.66
2022-10-02T03:55:40.805Z,98385.97
2022-10-02T03:58:15.068Z,98384.47
2022-10-02T04:01:05.871Z,98384.06
2022-10-02T04:03:40.212Z,98385.06
2022-10-02T04:06:15.649Z,98396.69
2022-10-02T04:08:56.200Z,98395.28
2022-10-02T04:11:28.279Z,98396.34
2022-10-02T04:13:59.020Z,98392.78
2022-10-02T04:16:33.784Z,98390.97
2022-10-02T04:19:24.146Z,98392.22
2022-10-02T04:21:59.718Z,98387.22
2022-10-02T04:24:39.223Z,98386.59
2022-10-02T04:27:25.031Z,98390.13
2022-10-02T04:30:05.796Z,98388.13
2022-10-02T04:32:36.971Z,98380.63
2022-10-02T04:35:15.765Z,98384.81
2022-10-02T04:38:07.279Z,98385.09
2022-10-02T04:41:02.591Z,98384.38
2022-10-02T04:43:44.381Z,98381.97
2022-10-02T04:46:43.375Z,98386.56
2022-10-02T04:49:40.292Z,98375.47
2022-10-02T04:52:28.547Z,98379.81
2022-10-02T04:55:16.821Z,98387.69
2022-10-02T04:57:55.333Z,98379.16
2022-10-02T05:00:23.834Z,98376.63
2022-10-02T05:03:23.974Z,98373.03
2022-10-02T05:06:13.637Z,98380.19
2022-10-02T05:09:03.231Z,98372.41
2022-10-02T05:11:58.952Z,98375.81
2022-10-02T05:14:56.732Z,98371.81
2022-10-02T05:17:26.278Z,98378.75
2022-10-02T05:20:18.706Z,98378.69
2022-10-02T05:23:03.568Z,98383.09
2022-10-02T05:26:05.614Z,98383.81
2022-10-02T05:28:53.920Z,98388.69
2022-10-02T05:31:58.247Z,98369.88
2022-10-02T05:34:38.220Z,98378.31
2022-10-02T05:37:36.523Z,98373.78
2022-10-02T05:40:03.016Z,98373.47
2022-10-02T05:42:51.378Z,98382.28
2022-10-02T05:45:34.743Z,98388.94
2022-10-02T05:48:08.275Z,98387.97
2022-10-02T05:50:38.019Z,98385.34
2022-10-02T05:53:31.909Z,98385.28
2022-10-02T05:56:09.274Z,98381.41
2022-10-02T05:58:46.249Z,98389.41
2022-10-02T06:01:17.777Z,98385.88
2022-10-02T06:04:17.283Z,98382.13
2022-10-02T06:06:49.095Z,98386.56
2022-10-02T06:09:20.000Z,98389.09
2022-10-02T06:12:01.860Z,98374.16
2022-10-02T06:14:40.770Z,98376.97
2022-10-02T06:17:16.468Z,98374.25
2022-10-02T06:20:03.623Z,98382.69
2022-10-02T06:22:46.552Z,98387.69
2022-10-02T06:25:25.046Z,98388.25
2022-10-02T06:28:02.988Z,98378.69
2022-10-02T06:30:32.527Z,98382.19
2022-10-02T06:33:04.582Z,98378.25
2022-10-02T06:35:43.091Z,98381.50
2022-10-02T06:38:25.279Z,98385.13
2022-10-02T06:41:04.176Z,98382.03
2022-10-02T06:43:40.593Z,98387.41
2022-10-02T06:46:27.804Z,98396.25
2022-10-02T06:49:00.410Z,98387.22
2022-10-02T06:51:56.359Z,98386.34
2022-10-02T06:54:26.150Z,98390.56
2022-10-02T06:57:14.630Z,98382.94
2022-10-02T07:00:03.987Z,98379.91
2022-10-02T07:02:56.014Z,98393.81
2022-10-02T07:05:45.575Z,98378.97
2022-10-02T07:08:22.141Z,98379.31
2022-10-02T07:10:57.654Z,98375.06
2022-10-02T07:13:42.510Z,98361.69
2022-10-02T07:16:43.249Z,98372.81
2022-10-02T07:19:32.985Z,98361.56
2022-10-02T07:22:45.946Z,98366.84
2022-10-02T07:25:19.079Z,98349.13
2022-10-02T07:28:01.117Z,98368.69
2022-10-02T07:30:38.282Z,98369.00
2022-10-02T07:33:07.788Z,98378.16
2022-10-02T07:36:12.822Z,98372.69
2022-10-02T07:38:45.277Z,98376.31
2022-10-02T07:41:33.376Z,98374.59
2022-10-02T07:44:12.204Z,98376.47
2022-10-02T07:46:56.656Z,98377.13
2022-10-02T07:49:33.316Z,98378.00
2022-10-02T07:52:22.377Z,98386.41
2022-10-02T07:54:56.561Z,98382.34
2022-10-02T07:57:38.173Z,98397.19
2022-10-02T08:00:11.741Z,98396.97
2022-10-02T08:02:47.006Z,98392.59
2022-10-02T08:05:18.522Z,98402.63
2022-10-02T08:07:50.865Z,98398.19
2022-10-02T08:10:21.962Z,98403.47
2022-10-02T08:12:56.557Z,98402.84
2022-10-02T08:15:25.382Z,98401.63
2022-10-02T08:18:16.474Z,98410.28
2022-10-02T08:20:47.937Z,98410.97
2022-10-02T08:23:34.159Z,98407.91
2022-10-02T08:26:09.821Z,98408.81
2022-10-02T08:29:05.520Z,98399.53
2022-10-02T08:31:33.148Z,98402.13
2022-10-02T08:34:13.982Z,98394.44
2022-10-02T08:37:02.028Z,98403.91
2022-10-02T08:39:42.097Z,98395.91
2022-10-02T08:42:47.894Z,98399.00
2022-10-02T08:45:52.182Z,98397.84
2022-10-02T08:48:55.480Z,98392.66
2022-10-02T08:51:54.443Z,98393.72
2022-10-02T08:54:47.043Z,98405.09
2022-10-02T08:57:34.678Z,98408.66
2022-10-02T09:00:22.229Z,98408.44
2022-10-02T09:03:13.277Z,98412.06
2022-10-02T09:05:59.332Z,98412.78
2022-10-02T09:08:45.082Z,98414.19
2022-10-02T09:11:19.486Z,98398.06
2022-10-02T09:14:17.601Z,98395.25
2022-10-02T09:17:06.195Z,98397.81
2022-10-02T09:19:42.094Z,98398.16
2022-10-02T09:22:48.135Z,98382.88
2022-10-02T09:25:14.590Z,98381.75
2022-10-02T09:28:17.779Z,98383.03
2022-10-02T09:31:03.720Z,98389.63
2022-10-02T09:34:04.396Z,98379.72
2022-10-02T09:36:49.385Z,98387.00
2022-10-02T09:39:34.186Z,98390.56
2022-10-02T09:42:31.753Z,98388.81
2022-10-02T09:45:22.696Z,98397.63
2022-10-02T09:48:16.314Z,98394.63
2022-10-02T09:51:13.449Z,98400.97
2022-10-02T09:53:52.258Z,98404.00
2022-10-02T09:56:37.421Z,98398.25
2022-10-02T09:59:29.156Z,98394.34
2022-10-02T10:02:14.888Z,98406.41
2022-10-02T10:05:10.827Z,98404.44
2022-10-02T10:07:55.950Z,98406.16
2022-10-02T10:10:44.456Z,98412.84
2022-10-02T10:13:32.867Z,98409.06
2022-10-02T10:16:14.861Z,98408.88
2022-10-02T10:18:50.610Z,98408.66
2022-10-02T10:21:45.058Z,98404.56
2022-10-02T10:24:41.133Z,98410.38
2022-10-02T10:27:24.237Z,98406.28
2022-10-02T10:30:00.140Z,98408.91
2022-10-02T10:32:48.264Z,98405.63
2022-10-02T10:35:36.678Z,98409.44
2022-10-02T10:38:41.000Z,98409.81
2022-10-02T10:41:28.597Z,98418.88
2022-10-02T10:44:15.503Z,98417.50
2022-10-02T10:47:31.206Z,98421.66
2022-10-02T10:50:19.382Z,98416.44
2022-10-02T10:52:56.482Z,98419.13
2022-10-02T10:55:46.434Z,98417.94
2022-10-02T10:58:30.165Z,98416.97
2022-10-02T11:01:13.468Z,98416.63
2022-10-02T11:04:01.269Z,98416.88
2022-10-02T11:06:36.664Z,98407.03
2022-10-02T11:09:13.946Z,98402.06
2022-10-02T11:11:49.230Z,98409.88
2022-10-02T11:14:22.915Z,98414.28
2022-10-02T11:17:08.295Z,98408.66
2022-10-02T11:19:56.457Z,98412.94
2022-10-02T11:22:39.502Z,98408.31
2022-10-02T11:25:12.910Z,98411.59
2022-10-02T11:28:28.673Z,98409.88
2022-10-02T11:31:11.800Z,98414.09
2022-10-02T11:33:57.693Z,98413.84
2022-10-02T11:36:45.773Z,98413.09
2022-10-02T11:39:20.648Z,98413.94
2022-10-02T11:42:16.390Z,98414.78
2022-10-02T11:44:58.400Z,98420.06
2022-10-02T11:47:53.008Z,98417.69
2022-10-02T11:50:40.920Z,98421.63
2022-10-02T11:53:20.765Z,98424.28
2022-10-02T11:56:24.902Z,98413.25
2022-10-02T11:59:07.199Z,98415.16
2022-10-02T12:01:53.420Z,98410.75
2022-10-02T12:04:42.339Z,98409.69
2022-10-02T12:07:48.575Z,98409.56
2022-10-02T12:10:52.987Z,98420.34
2022-10-02T12:13:45.381Z,98421.56
2022-10-02T12:16:39.446Z,98424.78
2022-10-02T12:19:15.284Z,98421.78
2022-10-02T12:22:44.327Z,98409.66
2022-10-02T12:25:38.487Z,98411.56
2022-10-02T12:28:23.113Z,98413.47
2022-10-02T12:31:15.752Z,98404.47
2022-10-02T12:34:14.203Z,98418.66
2022-10-02T12:36:58.385Z,98413.50
2022-10-02T12:39:24.904Z,98417.28
2022-10-02T12:42:09.277Z,98418.31
2022-10-02T12:44:49.388Z,98423.09
2022-10-02T12:47:22.308Z,98415.97
2022-10-02T12:50:29.940Z,98421.59
2022-10-02T12:53:22.333Z,98414.63
2022-10-02T12:56:26.095Z,98420.78
2022-10-02T12:59:01.789Z,98421.25
2022-10-02T13:01:47.122Z,98424.97
2022-10-02T13:04:32.090Z,98412.47
2022-10-02T13:07:31.081Z,98425.47
2022-10-02T13:10:16.238Z,98416.44
2022-10-02T13:12:57.206Z,98418.84
2022-10-02T13:15:38.208Z,98414.56
2022-10-02T13:18:17.238Z,98421.38
2022-10-02T13:21:04.224Z,98422.03
2022-10-02T13:23:46.955Z,98410.09
2022-10-02T13:26:13.654Z,98411.72
2022-10-02T13:28:52.923Z,98408.38
2022-10-02T13:31:39.050Z,98411.25
2022-10-02T13:34:40.522Z,98406.16
2022-10-02T13:37:22.424Z,98401.94
2022-10-02T13:40:03.852Z,98402.53
2022-10-02T13:42:54.385Z,98405.75
2022-10-02T13:45:27.290Z,98393.50
2022-10-02T13:48:06.476Z,98397.56
2022-10-02T13:50:57.550Z,98396.38
2022-10-02T13:53:30.786Z,98396.75
2022-10-02T13:56:20.891Z,98402.44
2022-10-02T13:59:13.605Z,98406.00
2022-10-02T14:02:09.262Z,98409.97
2022-10-02T14:04:36.005Z,98408.81
2022-10-02T14:07:18.930Z,98419.81
2022-10-02T14:10:10.898Z,98410.53
2022-10-02T14:12:50.075Z,98410.38
2022-10-02T14:15:47.748Z,98404.81
2022-10-02T14:18:26.607Z,98401.63
2022-10-02T14:21:12.077Z,98396.34
2022-10-02T14:24:10.983Z,98410.38
2022-10-02T14:27:05.814Z,98408.13
2022-10-02T14:29:49.146Z,98405.75
2022-10-02T14:32:34.863Z,98410.34
2022-10-02T14:35:38.598Z,98415.81
2022-10-02T14:38:27.207Z,98422.19
2022-10-02T14:40:55.848Z,98419.72
2022-10-02T14:43:40.523Z,98429.59
2022-10-02T14:46:38.197Z,98430.94
2022-10-02T14:49:39.838Z,98434.50
2022-10-02T14:52:42.757Z,98428.00
2022-10-02T14:55:27.227Z,98422.66
2022-10-02T14:58:09.202Z,98416.75
2022-10-02T15:01:14.206Z,98416.88
2022-10-02T15:03:53.524Z,98431.44
2022-10-02T15:06:31.756Z,98418.59
2022-10-02T15:09:13.233Z,98427.72
2022-10-02T15:11:42.638Z,98425.69
2022-10-02T15:14:42.794Z,98429.97
2022-10-02T15:17:35.966Z,98416.44
2022-10-02T15:20:11.858Z,98416.56
2022-10-02T15:22:57.177Z,98421.28
2022-10-02T15:25:48.683Z,98419.00
2022-10-02T15:28:37.400Z,98443.75
2022-10-02T15:31:18.072Z,98446.69
2022-10-02T15:34:11.393Z,98451.69
2022-10-02T15:36:56.340Z,98453.66
2022-10-02T15:39:28.906Z,98449.41
2022-10-02T15:42:05.978Z,98452.19
2022-10-02T15:44:51.268Z,98455.00
2022-10-02T15:47:23.978Z,98470.63
2022-10-02T15:50:04.023Z,98470.97
2022-10-02T15:52:52.624Z,98468.44
2022-10-02T15:55:42.566Z,98475.56
2022-10-02T15:58:21.337Z,98489.06
2022-10-02T16:01:00.991Z,98482.91
2022-10-02T16:03:34.114Z,98485.09
2022-10-02T16:06:12.816Z,98487.97
2022-10-02T16:09:03.870Z,98487.09
2022-10-02T16:12:08.735Z,98491.25
2022-10-02T16:14:53.587Z,98491.66
2022-10-02T16:17:34.729Z,98499.00
2022-10-02T16:20:28.270Z,98502.75
2022-10-02T16:23:15.913Z,98507.47
2022-10-02T16:25:58.459Z,98512.69
2022-10-02T16:28:39.527Z,98511.75
2022-10-02T16:31:34.018Z,98520.06
2022-10-02T16:34:11.234Z,98516.72
2022-10-02T16:36:52.379Z,98517.50
2022-10-02T16:39:37.688Z,98526.47
2022-10-02T16:42:35.203Z,98531.53
2022-10-02T16:45:39.518Z,98535.91
2022-10-02T16:48:21.687Z,98542.00
2022-10-02T16:51:10.127Z,98540.16
2022-10-02T16:54:02.604Z,98551.50
2022-10-02T16:56:34.045Z,98547.53
2022-10-02T16:59:12.228Z,98550.19
2022-10-02T17:02:06.041Z,98559.22
2022-10-02T17:04:52.470Z,98557.09
2022-10-02T17:07:42.053Z,98557.31
2022-10-02T17:10:19.860Z,98556.50
2022-10-02T17:13:25.901Z,98569.47
2022-10-02T17:15:55.956Z,98575.00
2022-10-02T17:18:45.211Z,98583.72
2022-10-02T17:21:22.392Z,98592.03
2022-10-02T17:24:13.869Z,98591.13
2022-10-02T17:26:55.686Z,98594.03
2022-10-02T17:29:39.708Z,98598.69
2022-10-02T17:32:08.978Z,98607.53
2022-10-02T17:34:46.982Z,98640.59
2022-10-02T17:37:13.463Z,98648.56
2022-10-02T17:39:57.670Z,98653.31
2022-10-02T17:42:47.955Z,98649.69
2022-10-02T17:45:26.346Z,98646.16
2022-10-02T17:48:02.312Z,98656.06
2022-10-02T17:50:47.164Z,98659.78
2022-10-02T17:54:02.212Z,98663.28
2022-10-02T17:56:34.597Z,98670.38
2022-10-02T17:59:17.175Z,98676.56
2022-10-02T18:02:01.319Z,98676.50
2022-10-02T18:04:30.735Z,98680.81
2022-10-02T18:07:39.911Z,98680.06
2022-10-02T18:10:32.339Z,98686.31
2022-10-02T18:13:20.053Z,98699.44
2022-10-02T18:16:02.404Z,98692.59
2022-10-02T18:19:01.360Z,98709.44
2022-10-02T18:21:41.960Z,98719.22
2022-10-02T18:24:46.154Z,98715.84
2022-10-02T18:27:31.751Z,98714.38
2022-10-02T18:30:20.794Z,98720.19
2022-10-02T18:33:06.167Z,98723.34
2022-10-02T18:35:53.191Z,98725.94
2022-10-02T18:38:33.338Z,98726.22
2022-10-02T18:41:24.937Z,98732.59
2022-10-02T18:43:54.472Z,98742.41
2022-10-02T18:46:32.924Z,98734.66
2022-10-02T18:49:14.945Z,98743.63
2022-10-02T18:52:16.831Z,98745.69
2022-10-02T18:54:58.576Z,98741.50
2022-10-02T18:57:56.036Z,98752.91
2022-10-02T19:00:26.186Z,98750.97
2022-10-02T19:03:12.231Z,98752.53
2022-10-02T19:05:51.064Z,98749.16
2022-10-02T19:08:55.373Z,98757.78
2022-10-02T19:11:28.554Z,98747.50
2022-10-02T19:13:55.471Z,98752.69
2022-10-02T19:16:25.928Z,98756.03
2022-10-02T19:19:20.996Z,98754.47
2022-10-02T19:21:48.470Z,98772.19
2022-10-02T19:24:24.381Z,98773.88
2022-10-02T19:26:57.191Z,98770.22
2022-10-02T19:29:46.451Z,98772.88
2022-10-02T19:32:21.273Z,98783.66
2022-10-02T19:35:02.536Z,98784.69
2022-10-02T19:37:31.707Z,98796.19
2022-10-02T19:40:01.758Z,98787.41
2022-10-02T19:42:32.859Z,98792.63
2022-10-02T19:45:25.482Z,98796.22
2022-10-02T19:48:07.367Z,98798.84
2022-10-02T19:50:44.470Z,98809.44
2022-10-02T19:53:24.530Z,98809.44
2022-10-02T19:55:57.280Z,98807.66
2022-10-02T19:58:41.747Z,98810.53
2022-10-02T20:01:18.158Z,98816.75
2022-10-02T20:03:46.126Z,98813.25
2022-10-02T20:06:18.508Z,98815.06
2022-10-02T20:08:53.978Z,98828.22
2022-10-02T20:11:38.006Z,98818.81
2022-10-02T20:14:26.032Z,98825.91
2022-10-02T20:17:12.885Z,98827.66
2022-10-02T20:19:52.881Z,98826.25
2022-10-02T20:22:31.944Z,98828.19
2022-10-02T20:25:14.325Z,98825.75
2022-10-02T20:27:52.015Z,98834.41
2022-10-02T20:30:21.322Z,98837.13
2022-10-02T20:33:13.801Z,98837.09
2022-10-02T20:35:46.699Z,98838.03
2022-10-02T20:38:24.077Z,98840.75
2022-10-02T20:40:54.713Z,98845.25
2022-10-02T20:43:28.886Z,98855.78
2022-10-02T20:46:28.177Z,98855.69
2022-10-02T20:49:13.632Z,98868.78
2022-10-02T20:51:52.900Z,98863.59
2022-10-02T20:54:44.662Z,98862.66
2022-10-02T20:57:49.287Z,98861.69
2022-10-02T21:00:19.768Z,98874.84
2022-10-02T21:03:14.219Z,98885.44
2022-10-02T21:05:57.614Z,98876.69
2022-10-02T21:08:54.213Z,98882.78
2022-10-02T21:11:50.804Z,98888.78
2022-10-02T21:14:33.882Z,98896.69
2022-10-02T21:17:23.878Z,98902.91
2022-10-02T21:20:53.576Z,98907.09
2022-10-02T21:23:38.748Z,98911.47
2022-10-02T21:26:49.507Z,98922.97
2022-10-02T21:29:26.469Z,98920.31
2022-10-02T21:32:10.414Z,98910.63
2022-10-02T21:35:07.803Z,98922.13
2022-10-02T21:38:01.547Z,98926.41
2022-10-02T21:40:58.946Z,98922.81
2022-10-02T21:43:34.455Z,98922.81
2022-10-02T21:46:04.862Z,98926.31
2022-10-02T21:48:40.935Z,98926.47
2022-10-02T21:51:27.032Z,98938.66
2022-10-02T21:54:30.973Z,98934.34
2022-10-02T21:57:18.795Z,98942.41
2022-10-02T22:00:13.650Z,98941.47
2022-10-02T22:03:00.200Z,98943.28
2022-10-02T22:06:05.576Z,98940.41
2022-10-02T22:08:54.976Z,98954.38
2022-10-02T22:11:50.912Z,98953.72
2022-10-02T22:14:29.678Z,98951.84
2022-10-02T22:17:08.408Z,98952.78
2022-10-02T22:20:09.084Z,98956.50
2022-10-02T22:22:54.604Z,98961.69
2022-10-02T22:25:32.996Z,98958.16
2022-10-02T22:28:21.430Z,98953.81
2022-10-02T22:30:57.228Z,98960.03
2022-10-02T22:33:44.328Z,98965.31
2022-10-02T22:36:13.937Z,98961.84
2022-10-02T22:38:51.741Z,98958.34
2022-10-02T22:41:31.020Z,98966.25
2022-10-02T22:44:06.882Z,98963.78
2022-10-02T22:46:52.202Z,98974.31
2022-10-02T22:49:37.627Z,98965.66
2022-10-02T22:52:34.363Z,98971.66
2022-10-02T22:55:13.114Z,98963.03
2022-10-02T22:58:05.770Z,98963.97
2022-10-02T23:00:49.265Z,98972.81
2022-10-02T23:03:24.838Z,98973.84
2022-10-02T23:06:01.691Z,98970.50
2022-10-02T23:08:39.158Z,98974.16
2022-10-02T23:11:21.275Z,98972.47
2022-10-02T23:13:54.649Z,98975.25
2022-10-02T23:16:45.161Z,98984.06
2022-10-02T23:19:28.269Z,98979.81
2022-10-02T23:21:58.081Z,98987.72
2022-10-02T23:24:24.665Z,98984.28
2022-10-02T23:26:54.898Z,98989.53
2022-10-02T23:29:24.541Z,98974.72
2022-10-02T23:32:04.923Z,98981.66
2022-10-02T23:34:49.041Z,98986.00
2022-10-02T23:37:34.115Z,98991.25
2022-10-02T23:40:48.314Z,98998.22
2022-10-02T23:43:24.891Z,99002.66
2022-10-02T23:46:02.025Z,99005.31
2022-10-02T23:48:31.426Z,99009.69
2022-10-02T23:51:32.320Z,99014.13
2022-10-02T23:54:20.758Z,99019.38
2022-10-02T23:57:14.360Z,99022.84
